Aérodrome :
LOGIN :

S'inscrire | Disclaimer

   EN    FR    IT 

 










Légende :    VFR   VFR Marginal   IFR   IFR Intensif   IFR Très Intensif
Visi : 
Plafond : 
>= 8 km
>= 3000ft
5 à 8 km
1000 à 3000 ft
1500m à 5 km
500 à 1000 ft
800 à 1500m
200 à 500 ft
< 800m
< 200 ft
Symboles :   Orages  Brouillard  Fortes neiges  Fortes précipitations  Vent > 20 kt
SIGMETs :   Divers  Orages  Givrage  Turbulence  Onde Orograph.  Cendres Volcan.







- Altitude de l'aérodrome : 587 ft
- Code IATA : XCR
- Voir les cartes d'approche


LFOK - Chalons Vatry

DERNIER METAR :
  • 202030Z AUTO 29010KT 9999 FEW020 BKN026 BKN054 08/06 Q1001 TEMPO 3000 RA BKN006 BKN013TCU

METARs EXPIRÉS :
  • 202000Z AUTO 30011KT 9999 FEW013 BKN060 08/07 Q1001 TEMPO 3000 RA BKN006 BKN013TCU
  • 201930Z AUTO 27013KT 9999 -RADZ FEW014/// SCT021/// BKN062/// ///TCU 08/07 Q1000 TEMPO 3000 RA BKN006 BKN013TCU BECMG 34005KT
  • 201900Z AUTO 27012KT 9999 SCT014/// BKN048/// BKN058/// ///TCU 08/07 Q1000 TEMPO 3000 RA BKN006 BKN013TCU BECMG 34005KT
  • 201830Z AUTO 28012KT 9999 -RA BKN015 BKN020 OVC052 08/07 Q1000 TEMPO 3000 RA BKN006 BKN013TCU BECMG 34005KT
  • 201800Z AUTO 29010KT 9999 -RA BKN012 OVC019 08/07 Q1000 TEMPO 3000 RA BKN006 BKN013TCU

TAF TAF LFOK
Valide du 20 à 18h jusqu'au 21 à 18h UTC


201700Z 2018/2118 29015KT 9999 BKN013
TEMPO 2018/2103 3000 RA BKN006 BKN013TCU
BECMG 2020/2023 34005KT
TEMPO 2103/2111 BKN007
BECMG 2110/2113 4000 RA OVC012
TEMPO 2113/2118 2000 RADZ OVC004
Pas de NOTAMs connus pour ce terrain.
2 SIGMETs publiés pour la FIR Paris (LFFF) :
 
Turbulence forte
LFFF SIGMET 8 VALID 202100/210100 LFPW
LFFF PARIS FIR/UIR SEV TURB FCST NE OF LINE N5100 E00145 - N4815 E00530 FL180/290 MOV NE 20KT NC=
Turbulence forte
LFFF SIGMET 7 VALID 201700/202100 LFPW
LFFF PARIS FIR/UIR SEV TURB FCST NE OF LINE N4815 E00515 - N5045 E00100 FL180/310 MOV NE 15KT NC=



MET'MAP, la Météo Aéronautique d'un coup d'oeil ! - Copyright ORBIFLY Décembre 2007 - Disclaimer

ORBIFLY MET'MAP TEAM :

Programmation & Développement : Alexandra Zaïnal
Conception & Développement : Baudouin d'Aumeries
Co-Programmation & Développement : Marc-Olivier Méhu
Soutien technique & logistique : Manuel Goepfert

Contact : metmap@orbifly.com




SOURCES & CREDITS :

   NOAA